Time;durP1;ratioP1;P1;durP2;ratioP2;P2;SDS_P1;SDS_P2;PMS_P1;PMS_P2;Temp;Humidity;BMP_temperature;BMP_pressure;BME280_temperature;BME280_humidity;BME280_pressure;Samples;Min_cycle;Max_cycle;Signal;HPM_P1;HPM_P2
2023/10/12 00:01:58;;;;;;;5.50;3.73;;;24.50;44.50;;;;;;5029938;28;20946;-45
2023/10/12 00:04:35;;;;;;;9.30;5.10;;;24.60;45.10;;;;;;5027260;28;20535;-45
2023/10/12 00:07:10;;;;;;;7.70;5.03;;;24.60;45.00;;;;;;5021141;28;20466;-46
2023/10/12 00:09:36;;;;;;;9.73;4.47;;;24.60;44.90;;;;;;5024914;28;20452;-44
2023/10/12 00:12:07;;;;;;;6.13;4.03;;;24.60;45.10;;;;;;5029717;28;20593;-50
2023/10/12 00:14:34;;;;;;;8.90;4.80;;;24.60;44.80;;;;;;5019804;28;20201;-44
2023/10/12 00:17:00;;;;;;;5.73;4.63;;;24.60;45.10;;;;;;5020208;28;20440;-45
2023/10/12 00:19:26;;;;;;;5.43;3.80;;;24.70;45.40;;;;;;5021683;28;20452;-44
2023/10/12 00:22:09;;;;;;;13.30;4.50;;;24.50;44.80;;;;;;5023992;28;20531;-45
2023/10/12 00:24:35;;;;;;;7.10;5.67;;;24.40;44.90;;;;;;5021531;28;21016;-47
2023/10/12 00:27:02;;;;;;;7.20;4.83;;;24.10;45.10;;;;;;5016053;28;20454;-50
2023/10/12 00:29:28;;;;;;;6.93;4.10;;;24.10;45.60;;;;;;5024067;28;20203;-49
2023/10/12 00:31:55;;;;;;;9.57;4.77;;;24.10;45.90;;;;;;5025496;28;21015;-47
2023/10/12 00:34:27;;;;;;;12.23;3.90;;;24.00;45.50;;;;;;5025732;28;20489;-44
2023/10/12 00:36:53;;;;;;;5.57;4.37;;;24.10;45.60;;;;;;5021081;28;20534;-44
2023/10/12 00:39:29;;;;;;;10.10;4.77;;;23.90;46.00;;;;;;5019927;28;20531;-49
2023/10/12 00:41:55;;;;;;;6.40;4.50;;;23.90;46.30;;;;;;5021568;28;20196;-46
2023/10/12 00:44:26;;;;;;;7.13;4.57;;;24.00;46.10;;;;;;5021445;28;20440;-46
2023/10/12 00:49:27;;;;;;;11.00;4.70;;;24.10;45.70;;;;;;5024611;28;20458;-46
2023/10/12 00:52:07;;;;;;;6.80;4.53;;;24.10;46.00;;;;;;5025047;28;20530;-47
2023/10/12 00:57:05;;;;;;;17.63;5.70;;;24.10;45.40;;;;;;5026857;28;20436;-49
2023/10/12 00:59:31;;;;;;;8.20;4.87;;;24.10;46.00;;;;;;5025365;28;20981;-48
2023/10/12 01:02:11;;;;;;;7.53;4.80;;;24.10;46.00;;;;;;5026612;28;21202;-45
2023/10/12 01:04:41;;;;;;;7.40;5.10;;;24.10;46.00;;;;;;5024909;28;20974;-46
2023/10/12 01:07:10;;;;;;;9.53;4.77;;;23.90;45.90;;;;;;5023551;28;20487;-45
2023/10/12 01:09:43;;;;;;;7.33;4.87;;;23.90;46.40;;;;;;5041432;28;20456;-44
2023/10/12 01:12:15;;;;;;;8.17;5.23;;;23.80;46.60;;;;;;5022640;28;20989;-45
2023/10/12 01:14:43;;;;;;;8.07;4.70;;;23.60;46.60;;;;;;5027008;28;20499;-50
2023/10/12 01:17:34;;;;;;;10.67;4.83;;;23.10;48.10;;;;;;5027547;28;20947;-49
2023/10/12 01:19:56;;;;;;;11.73;4.70;;;22.90;48.20;;;;;;5023609;28;20549;-52
2023/10/12 01:22:31;;;;;;;5.80;4.30;;;22.80;48.40;;;;;;5026555;28;20472;-49
2023/10/12 01:24:58;;;;;;;8.30;5.17;;;22.70;48.40;;;;;;5027924;28;20422;-47
2023/10/12 01:27:25;;;;;;;7.03;4.10;;;22.60;48.50;;;;;;5029652;28;20939;-49
2023/10/12 01:30:13;;;;;;;7.20;4.90;;;22.50;48.80;;;;;;5020648;28;20455;-44
2023/10/12 01:32:39;;;;;;;6.47;4.43;;;22.50;49.00;;;;;;5011125;28;20440;-45
2023/10/12 01:35:06;;;;;;;7.10;4.70;;;22.50;48.90;;;;;;5021000;28;20966;-45
2023/10/12 01:37:47;;;;;;;7.73;4.57;;;22.50;48.70;;;;;;5021088;28;20202;-48
2023/10/12 01:40:15;;;;;;;8.20;4.87;;;22.70;48.60;;;;;;5013615;28;20530;-46
2023/10/12 01:45:45;;;;;;;6.87;5.07;;;22.60;48.60;;;;;;5023079;28;20502;-46
2023/10/12 01:48:12;;;;;;;6.17;4.37;;;22.50;48.80;;;;;;5017979;28;20213;-48
2023/10/12 01:50:38;;;;;;;8.20;4.43;;;22.50;48.90;;;;;;5029941;28;20478;-47
2023/10/12 01:55:51;;;;;;;9.77;4.63;;;22.50;48.80;;;;;;5024517;28;20575;-48
2023/10/12 01:58:18;;;;;;;6.00;5.00;;;22.80;48.40;;;;;;5028910;28;20451;-47
2023/10/12 02:00:51;;;;;;;7.37;4.63;;;22.90;48.10;;;;;;5024376;28;20454;-47
2023/10/12 02:03:32;;;;;;;4.47;3.70;;;22.80;48.10;;;;;;5032355;28;20978;-46
2023/10/12 02:06:13;;;;;;;5.43;4.73;;;22.90;48.40;;;;;;5030558;28;20443;-46
2023/10/12 02:08:40;;;;;;;4.57;4.17;;;23.00;48.00;;;;;;5028505;28;20462;-47
2023/10/12 02:11:11;;;;;;;7.60;4.30;;;23.00;48.70;;;;;;5025150;28;20491;-46
2023/10/12 02:13:38;;;;;;;7.13;4.80;;;23.00;48.10;;;;;;5032962;28;20530;-46
2023/10/12 02:16:07;;;;;;;5.47;4.60;;;23.10;47.60;;;;;;5027308;28;20435;-48
2023/10/12 02:18:34;;;;;;;7.90;4.90;;;23.00;47.70;;;;;;5026049;28;20443;-46
2023/10/12 02:21:08;;;;;;;6.50;4.93;;;23.00;47.50;;;;;;5029071;28;21363;-47
2023/10/12 02:23:38;;;;;;;5.67;4.53;;;23.10;47.60;;;;;;5030060;28;20776;-46
2023/10/12 02:28:53;;;;;;;7.33;5.10;;;23.30;47.40;;;;;;5031441;28;20513;-46
2023/10/12 02:31:20;;;;;;;6.30;4.20;;;23.40;47.00;;;;;;5022800;28;20893;-47
2023/10/12 02:33:45;;;;;;;9.87;5.23;;;23.50;46.90;;;;;;5027890;28;20450;-46
2023/10/12 02:36:13;;;;;;;6.37;4.43;;;23.30;46.80;;;;;;5030306;28;20439;-46
2023/10/12 02:38:41;;;;;;;8.40;5.07;;;23.10;47.00;;;;;;5021379;28;20197;-46
2023/10/12 02:41:12;;;;;;;5.80;5.10;;;23.10;47.70;;;;;;5031800;28;20439;-46
2023/10/12 02:43:40;;;;;;;11.87;4.67;;;23.20;47.30;;;;;;5028057;28;20448;-47
2023/10/12 02:46:06;;;;;;;5.40;4.63;;;23.20;47.30;;;;;;5032772;28;20466;-46
2023/10/12 02:48:36;;;;;;;11.97;5.67;;;23.10;46.90;;;;;;5030120;28;20444;-46
2023/10/12 02:51:06;;;;;;;6.67;3.90;;;22.90;47.60;;;;;;5019413;28;20525;-46
2023/10/12 02:53:34;;;;;;;9.23;5.17;;;22.80;47.70;;;;;;5029436;28;20444;-47
2023/10/12 02:56:06;;;;;;;7.43;4.83;;;22.90;47.60;;;;;;5027268;28;20796;-46
2023/10/12 02:58:32;;;;;;;7.43;4.80;;;22.70;47.90;;;;;;5030689;28;20444;-47
2023/10/12 03:01:16;;;;;;;10.33;5.60;;;22.80;47.60;;;;;;5033141;28;20660;-46
2023/10/12 03:03:48;;;;;;;6.00;5.37;;;22.60;47.90;;;;;;5023557;28;21028;-48
2023/10/12 03:06:22;;;;;;;7.80;4.90;;;22.40;48.20;;;;;;5022161;28;20447;-46
2023/10/12 03:11:26;;;;;;;7.13;4.43;;;22.20;48.70;;;;;;5026259;28;20502;-46
2023/10/12 03:14:00;;;;;;;9.17;4.83;;;22.40;48.30;;;;;;5028099;28;20444;-46
2023/10/12 03:16:33;;;;;;;4.80;3.90;;;22.30;48.20;;;;;;5021887;28;20521;-46
2023/10/12 03:19:17;;;;;;;5.90;4.37;;;22.40;48.20;;;;;;5020437;28;20449;-48
2023/10/12 03:21:52;;;;;;;9.47;3.73;;;22.50;48.00;;;;;;5028262;28;20574;-46
2023/10/12 03:24:21;;;;;;;6.97;5.07;;;22.50;48.00;;;;;;5023169;28;20465;-47
2023/10/12 03:29:51;;;;;;;8.50;5.30;;;22.30;48.30;;;;;;5013420;28;20452;-46
2023/10/12 03:32:22;;;;;;;5.60;4.30;;;22.00;48.90;;;;;;5030649;28;20487;-46
2023/10/12 03:37:18;;;;;;;7.47;5.10;;;22.10;48.90;;;;;;5023018;28;20447;-51
2023/10/12 03:44:55;;;;;;;6.83;4.03;;;22.00;48.70;;;;;;5020410;28;20443;-46
2023/10/12 03:55:16;;;;;;;10.87;4.57;;;22.20;48.30;;;;;;5030970;28;20878;-47
2023/10/12 03:58:00;;;;;;;9.30;4.73;;;22.40;48.20;;;;;;5026164;28;20459;-46
2023/10/12 04:00:34;;;;;;;8.40;4.90;;;22.50;48.00;;;;;;5030453;28;20446;-48
2023/10/12 04:03:05;;;;;;;9.07;5.30;;;22.50;48.00;;;;;;5025390;28;21463;-46
2023/10/12 04:18:34;;;;;;;17.23;5.20;;;22.40;48.00;;;;;;5024407;28;20989;-48
2023/10/12 04:21:02;;;;;;;6.10;4.90;;;22.40;48.10;;;;;;5030277;28;20521;-47
2023/10/12 04:28:50;;;;;;;8.80;4.30;;;22.50;47.90;;;;;;5028621;28;20814;-49
2023/10/12 04:31:33;;;;;;;12.27;4.67;;;22.80;47.60;;;;;;5030138;28;20487;-47
2023/10/12 04:34:07;;;;;;;4.97;4.43;;;22.70;47.40;;;;;;5022832;28;20467;-46
2023/10/12 04:39:16;;;;;;;7.30;4.80;;;23.00;47.00;;;;;;5028970;28;20447;-46
2023/10/12 04:44:25;;;;;;;6.60;4.77;;;23.20;46.40;;;;;;5016573;28;20817;-49
2023/10/12 04:52:59;;;;;;;7.23;4.40;;;23.30;46.20;;;;;;5020547;28;21356;-48
2023/10/12 04:57:34;;;;;;;7.67;4.93;;;23.50;46.10;;;;;;5023267;28;20479;-46
2023/10/12 05:00:24;;;;;;;10.93;5.67;;;23.50;46.00;;;;;;5026534;28;20806;-46
2023/10/12 05:07:57;;;;;;;6.70;5.57;;;22.90;47.50;;;;;;5022306;28;20252;-46
2023/10/12 05:10:31;;;;;;;11.30;5.17;;;22.90;47.00;;;;;;5025576;28;20785;-46
2023/10/12 05:13:04;;;;;;;9.93;5.30;;;23.00;47.80;;;;;;5024125;28;20439;-50
2023/10/12 05:15:46;;;;;;;6.30;4.33;;;23.00;46.90;;;;;;5024759;28;20533;-50
2023/10/12 05:18:17;;;;;;;8.47;4.67;;;22.90;47.60;;;;;;5031107;28;20499;-48
2023/10/12 05:20:43;;;;;;;12.70;4.83;;;23.00;47.70;;;;;;5033195;28;20552;-51
2023/10/12 05:23:12;;;;;;;10.23;4.50;;;23.10;47.50;;;;;;5029457;28;20455;-49
2023/10/12 05:28:58;;;;;;;8.50;4.43;;;23.20;47.10;;;;;;4973014;28;20451;-50
2023/10/12 05:31:27;;;;;;;7.43;3.80;;;23.30;46.90;;;;;;5028348;28;20495;-52
2023/10/12 05:36:54;;;;;;;19.43;5.40;;;23.30;46.80;;;;;;4988711;28;20504;-50
2023/10/12 05:39:22;;;;;;;8.67;4.70;;;23.40;46.50;;;;;;5020797;28;20450;-50
2023/10/12 05:41:47;;;;;;;6.50;4.50;;;23.30;46.50;;;;;;5032771;28;20203;-50
2023/10/12 05:44:15;;;;;;;13.27;5.13;;;23.20;46.60;;;;;;5032463;28;20987;-46
2023/10/12 05:46:44;;;;;;;8.30;5.10;;;23.30;46.70;;;;;;5025310;28;20200;-49
2023/10/12 05:49:13;;;;;;;6.30;5.10;;;23.30;46.50;;;;;;5027404;28;20439;-47
2023/10/12 05:51:42;;;;;;;5.73;4.30;;;23.30;46.40;;;;;;5033880;28;20589;-49
2023/10/12 05:54:08;;;;;;;7.47;4.30;;;23.40;46.30;;;;;;5021303;28;20445;-46
2023/10/12 05:56:37;;;;;;;8.23;4.80;;;23.40;46.30;;;;;;5030243;28;20513;-49
2023/10/12 05:59:12;;;;;;;6.77;5.60;;;23.40;46.10;;;;;;5025592;28;20650;-50
2023/10/12 06:01:45;;;;;;;14.33;5.87;;;23.30;46.30;;;;;;5030178;28;20482;-48
2023/10/12 06:04:14;;;;;;;7.53;4.73;;;23.40;46.30;;;;;;5026418;28;20508;-50
2023/10/12 06:06:44;;;;;;;5.53;4.60;;;23.40;46.10;;;;;;5032648;28;20509;-47
2023/10/12 06:09:20;;;;;;;8.47;4.60;;;23.50;46.30;;;;;;5033777;28;21041;-51
2023/10/12 06:11:47;;;;;;;10.20;4.90;;;23.40;46.20;;;;;;5037697;28;20585;-48
2023/10/12 06:14:14;;;;;;;9.20;5.13;;;23.40;46.30;;;;;;5032903;28;20838;-48
2023/10/12 06:16:41;;;;;;;15.77;5.80;;;23.30;46.30;;;;;;5022429;28;20706;-46
2023/10/12 06:19:26;;;;;;;12.20;5.50;;;23.30;46.40;;;;;;5023583;28;20468;-48
2023/10/12 06:21:53;;;;;;;7.47;4.50;;;23.30;46.50;;;;;;5021899;28;20804;-51
2023/10/12 06:24:33;;;;;;;12.80;5.20;;;23.10;46.80;;;;;;5035179;28;20534;-52
2023/10/12 06:27:22;;;;;;;6.63;4.47;;;23.20;46.90;;;;;;5027905;28;20498;-47
2023/10/12 06:29:49;;;;;;;8.83;5.33;;;23.00;47.10;;;;;;5024850;28;20981;-49
2023/10/12 06:32:48;;;;;;;11.53;5.20;;;23.10;47.00;;;;;;5024493;28;20578;-47
2023/10/12 06:45:51;;;;;;;9.83;4.90;;;22.80;48.50;;;;;;5018558;28;20539;-49
2023/10/12 06:51:02;;;;;;;6.90;5.10;;;23.20;47.30;;;;;;5028572;28;20483;-51
2023/10/12 06:53:35;;;;;;;8.30;5.07;;;23.20;47.10;;;;;;5033005;28;20444;-48
2023/10/12 06:59:14;;;;;;;8.07;4.80;;;23.60;46.80;;;;;;5029763;28;20448;-47
2023/10/12 07:04:15;;;;;;;8.83;4.90;;;24.10;46.30;;;;;;5029822;28;20440;-48
2023/10/12 07:06:56;;;;;;;6.83;4.43;;;24.20;46.10;;;;;;5031949;28;20452;-48
2023/10/12 07:12:08;;;;;;;9.70;5.20;;;24.30;46.30;;;;;;5030862;28;20901;-49
2023/10/12 07:14:38;;;;;;;8.70;5.30;;;24.50;45.90;;;;;;5027585;28;20427;-47
2023/10/12 07:17:07;;;;;;;7.60;5.40;;;24.60;46.00;;;;;;5030647;28;20494;-51
2023/10/12 07:19:34;;;;;;;12.17;5.07;;;24.50;46.10;;;;;;5030796;28;20519;-48
2023/10/12 07:22:01;;;;;;;11.50;5.43;;;24.60;46.00;;;;;;5028325;28;20444;-48
2023/10/12 07:24:30;;;;;;;9.60;5.10;;;24.80;45.60;;;;;;5013876;28;20959;-47
2023/10/12 07:27:09;;;;;;;11.83;4.77;;;24.70;45.70;;;;;;5028492;28;20451;-48
2023/10/12 07:29:36;;;;;;;10.07;5.17;;;24.90;45.60;;;;;;5022805;28;20449;-47
2023/10/12 07:34:53;;;;;;;9.10;5.23;;;25.30;45.10;;;;;;5026946;28;20449;-48
2023/10/12 07:37:19;;;;;;;8.30;4.90;;;25.70;44.20;;;;;;5021991;28;20932;-49
2023/10/12 07:39:45;;;;;;;7.87;5.00;;;25.90;43.10;;;;;;5015555;28;20536;-47
2023/10/12 07:42:24;;;;;;;8.13;5.10;;;26.10;42.60;;;;;;5022146;28;20205;-50
2023/10/12 07:44:56;;;;;;;10.30;4.60;;;26.30;42.30;;;;;;5022151;28;20452;-49
2023/10/12 07:47:40;;;;;;;7.67;4.47;;;26.20;41.60;;;;;;5024300;28;20928;-47
2023/10/12 07:50:09;;;;;;;14.37;5.23;;;26.20;41.50;;;;;;5028666;28;20509;-48
2023/10/12 07:55:12;;;;;;;9.53;4.70;;;26.10;41.60;;;;;;5026630;28;20466;-51
2023/10/12 07:57:38;;;;;;;9.90;4.50;;;26.10;42.10;;;;;;5023040;28;20450;-48
2023/10/12 08:13:25;;;;;;;10.47;6.20;;;26.50;41.60;;;;;;5018922;28;20445;-46
2023/10/12 09:15:01;;;;;;;5.40;4.90;;;25.10;43.70;;;;;;4930998;23;22508;-56
2023/10/12 09:17:29;;;;;;;6.70;4.53;;;25.20;43.60;;;;;;4937725;28;20318;-49
2023/10/12 09:20:11;;;;;;;5.50;5.00;;;25.30;43.40;;;;;;4944680;28;20468;-50
2023/10/12 09:22:38;;;;;;;5.53;4.40;;;25.20;43.40;;;;;;4949646;28;20455;-50
2023/10/12 09:25:05;;;;;;;8.23;4.70;;;25.20;43.60;;;;;;4950660;28;20531;-48
2023/10/12 09:27:48;;;;;;;6.97;5.20;;;25.40;43.40;;;;;;4948681;28;20469;-48
2023/10/12 09:30:17;;;;;;;7.67;5.10;;;25.20;43.50;;;;;;4944696;28;20470;-48
2023/10/12 09:32:57;;;;;;;8.80;4.93;;;25.20;43.70;;;;;;4949377;28;20486;-48
2023/10/12 09:35:33;;;;;;;9.43;5.17;;;25.40;43.50;;;;;;4932549;28;20450;-52
2023/10/12 09:38:01;;;;;;;7.90;5.20;;;25.40;43.40;;;;;;4937237;28;20483;-48
2023/10/12 09:40:34;;;;;;;11.00;5.23;;;25.60;43.50;;;;;;4932896;28;20569;-46
2023/10/12 09:43:06;;;;;;;9.93;4.93;;;25.40;44.10;;;;;;4942157;28;20519;-47
2023/10/12 09:45:39;;;;;;;8.17;5.50;;;25.30;43.70;;;;;;4948401;28;21012;-48
2023/10/12 09:48:11;;;;;;;5.53;4.63;;;25.30;43.90;;;;;;4931910;28;20492;-49
2023/10/12 09:50:40;;;;;;;10.70;5.50;;;25.30;44.00;;;;;;4942632;28;20459;-49
2023/10/12 09:53:22;;;;;;;6.30;5.20;;;25.20;44.10;;;;;;4944324;28;20692;-47
2023/10/12 09:56:15;;;;;;;9.03;6.40;;;25.30;43.90;;;;;;4946784;28;20537;-48
2023/10/12 10:01:17;;;;;;;10.93;6.00;;;25.40;43.70;;;;;;4941356;28;20535;-53
2023/10/12 10:03:49;;;;;;;10.03;5.70;;;25.50;43.50;;;;;;4936873;28;20530;-46
2023/10/12 10:06:28;;;;;;;8.50;4.77;;;25.60;43.50;;;;;;4946670;28;20562;-47
2023/10/12 10:11:40;;;;;;;8.60;5.50;;;25.70;43.30;;;;;;4934236;28;20598;-49
2023/10/12 10:14:09;;;;;;;8.33;4.90;;;25.60;43.40;;;;;;4953472;28;20435;-49
2023/10/12 10:16:46;;;;;;;10.17;5.07;;;25.60;43.40;;;;;;4954466;28;20490;-62
2023/10/12 10:19:13;;;;;;;6.23;5.00;;;25.60;43.50;;;;;;4950453;28;20596;-55
2023/10/12 10:22:05;;;;;;;6.37;5.20;;;25.70;43.60;;;;;;4927815;28;20726;-55
2023/10/12 10:24:57;;;;;;;10.17;6.43;;;25.80;43.40;;;;;;4914826;29;20449;-49
2023/10/12 10:27:34;;;;;;;9.15;5.00;;;25.80;43.50;;;;;;4903360;29;20468;-53
2023/10/12 10:30:26;;;;;;;9.63;4.60;;;25.90;43.10;;;;;;4910434;29;20213;-51
2023/10/12 10:33:17;;;;;;;11.83;5.70;;;25.90;43.30;;;;;;4913823;29;20928;-53
2023/10/12 10:36:24;;;;;;;7.30;5.17;;;26.00;43.30;;;;;;4910975;29;20485;-52
2023/10/12 10:41:38;;;;;;;16.97;14.00;;;26.00;43.30;;;;;;4911029;29;20436;-51
2023/10/12 10:44:08;;;;;;;8.67;6.10;;;26.10;43.10;;;;;;4913175;29;20928;-53
2023/10/12 10:46:39;;;;;;;10.90;6.10;;;26.20;43.10;;;;;;4908741;29;20481;-53
2023/10/12 10:49:06;;;;;;;13.07;6.33;;;26.30;43.10;;;;;;4911854;29;20485;-50
2023/10/12 10:51:32;;;;;;;6.57;4.87;;;26.30;43.10;;;;;;4913294;29;20911;-53
2023/10/12 10:53:58;;;;;;;8.37;5.97;;;26.30;43.10;;;;;;4910904;29;20442;-52
2023/10/12 10:56:35;;;;;;;8.30;5.70;;;26.30;43.10;;;;;;4905504;29;20209;-53
2023/10/12 10:59:01;;;;;;;9.47;5.77;;;26.30;43.00;;;;;;4912666;29;20205;-51
2023/10/12 11:01:27;;;;;;;8.60;5.77;;;26.10;43.10;;;;;;4907196;29;20441;-50
2023/10/12 11:03:55;;;;;;;7.17;5.57;;;26.20;43.10;;;;;;4909287;29;21841;-48
2023/10/12 11:06:24;;;;;;;6.40;5.00;;;26.30;43.10;;;;;;4905416;29;20182;-48
2023/10/12 11:09:01;;;;;;;9.13;5.80;;;26.40;43.00;;;;;;4911787;29;20549;-50
2023/10/12 11:11:37;;;;;;;7.43;5.60;;;26.40;42.80;;;;;;4913397;29;20540;-51
2023/10/12 11:14:03;;;;;;;14.47;5.70;;;26.10;43.00;;;;;;4911053;29;20529;-50
2023/10/12 11:16:29;;;;;;;13.07;6.13;;;25.90;43.50;;;;;;4912449;29;21007;-50
2023/10/12 11:18:55;;;;;;;30.57;7.50;;;26.00;43.70;;;;;;4918822;29;20464;-51
2023/10/12 11:21:21;;;;;;;6.70;5.90;;;26.10;43.70;;;;;;4913264;29;20189;-52
2023/10/12 11:23:50;;;;;;;10.63;5.90;;;26.10;43.60;;;;;;4913558;29;20503;-49
2023/10/12 11:26:20;;;;;;;10.63;6.37;;;26.30;43.80;;;;;;4909776;29;20453;-47
2023/10/12 11:29:00;;;;;;;11.70;6.33;;;26.30;43.40;;;;;;4914174;29;20468;-49
2023/10/12 11:31:32;;;;;;;13.80;5.80;;;26.40;43.10;;;;;;4912363;29;20481;-49
2023/10/12 11:33:59;;;;;;;8.00;6.17;;;26.40;43.20;;;;;;4913831;29;20453;-51
2023/10/12 11:36:25;;;;;;;12.53;6.30;;;26.40;43.20;;;;;;4912890;29;20441;-48
2023/10/12 11:39:16;;;;;;;10.03;6.10;;;26.50;43.30;;;;;;4914416;29;20429;-48
2023/10/12 11:42:02;;;;;;;7.40;5.20;;;26.50;43.30;;;;;;4909045;29;21007;-48
2023/10/12 11:44:32;;;;;;;10.80;4.97;;;26.60;43.20;;;;;;4914298;29;20970;-49
2023/10/12 11:46:59;;;;;;;5.33;4.83;;;26.70;43.10;;;;;;4912225;29;21037;-48
2023/10/12 11:49:24;;;;;;;9.10;5.10;;;26.80;43.00;;;;;;4913165;29;20469;-50
2023/10/12 11:51:54;;;;;;;6.87;5.30;;;26.80;42.70;;;;;;4913244;29;20499;-49
2023/10/12 11:54:19;;;;;;;9.27;6.00;;;26.90;42.80;;;;;;4915425;29;20523;-53
2023/10/12 11:56:45;;;;;;;7.23;5.00;;;26.90;43.00;;;;;;4911651;29;20444;-54
2023/10/12 11:59:22;;;;;;;10.10;6.07;;;26.80;42.90;;;;;;4911125;29;20341;-51
2023/10/12 12:01:54;;;;;;;7.93;6.30;;;26.70;42.90;;;;;;4907935;29;20476;-50
2023/10/12 12:04:31;;;;;;;6.30;5.70;;;26.70;43.40;;;;;;4916600;29;20445;-51
2023/10/12 12:06:57;;;;;;;10.40;5.40;;;26.70;43.30;;;;;;4908816;29;20453;-48
2023/10/12 12:09:26;;;;;;;12.47;5.40;;;26.80;43.30;;;;;;4912643;29;20469;-49
2023/10/12 12:11:53;;;;;;;11.40;5.60;;;26.80;43.20;;;;;;4909032;29;20492;-50
2023/10/12 12:14:19;;;;;;;9.50;6.27;;;26.80;43.10;;;;;;4908818;29;20877;-50
2023/10/12 12:16:44;;;;;;;9.50;5.87;;;26.80;43.50;;;;;;4909968;29;20461;-49
2023/10/12 12:19:17;;;;;;;15.40;6.37;;;26.80;43.50;;;;;;4917724;29;20213;-51
2023/10/12 12:21:45;;;;;;;11.50;5.93;;;26.90;43.50;;;;;;4910884;29;20200;-48
2023/10/12 12:26:45;;;;;;;7.53;5.97;;;27.00;44.10;;;;;;4917799;29;21334;-52
2023/10/12 12:29:15;;;;;;;10.30;5.60;;;27.10;44.40;;;;;;4913656;29;21215;-50
2023/10/12 12:31:41;;;;;;;15.87;7.13;;;27.10;45.10;;;;;;4912167;29;20520;-50
2023/10/12 12:34:06;;;;;;;12.47;7.20;;;27.10;45.00;;;;;;4912052;29;20473;-48
2023/10/12 12:36:32;;;;;;;12.73;6.97;;;27.00;45.10;;;;;;4909596;29;20216;-50
2023/10/12 12:39:00;;;;;;;9.97;6.50;;;27.00;45.30;;;;;;4911164;29;20217;-49
2023/10/12 12:41:28;;;;;;;10.60;7.10;;;27.00;45.20;;;;;;4906199;29;20864;-49
2023/10/12 12:43:54;;;;;;;7.57;5.87;;;27.00;45.10;;;;;;4906189;29;20449;-54
2023/10/12 12:46:24;;;;;;;10.80;6.43;;;26.90;45.10;;;;;;4910811;29;20484;-49
2023/10/12 12:48:50;;;;;;;14.43;6.80;;;26.80;45.20;;;;;;4912227;29;21139;-50
2023/10/12 12:51:17;;;;;;;9.50;7.50;;;26.80;44.90;;;;;;4910661;29;20256;-51
2023/10/12 12:53:46;;;;;;;10.00;6.67;;;26.70;44.80;;;;;;4908914;29;20441;-49
2023/10/12 12:56:15;;;;;;;10.23;6.90;;;26.60;45.10;;;;;;4907269;29;20433;-51
2023/10/12 12:58:49;;;;;;;8.30;6.17;;;26.60;45.10;;;;;;4907254;29;20488;-47
2023/10/12 13:01:19;;;;;;;12.50;6.33;;;26.60;45.00;;;;;;4903958;29;20548;-50
2023/10/12 13:03:48;;;;;;;8.70;6.10;;;26.70;44.70;;;;;;4907215;29;20553;-50
2023/10/12 13:06:17;;;;;;;6.83;5.50;;;26.70;44.40;;;;;;4912262;29;20468;-54
2023/10/12 13:08:42;;;;;;;10.60;6.60;;;26.70;44.20;;;;;;4912475;29;20445;-50
2023/10/12 13:11:09;;;;;;;9.90;6.37;;;26.80;44.20;;;;;;4911336;29;20480;-53
2023/10/12 13:13:35;;;;;;;9.00;5.77;;;26.90;44.20;;;;;;4913156;29;20288;-50
2023/10/12 13:16:04;;;;;;;10.50;6.50;;;26.90;44.70;;;;;;4910161;29;20621;-54
2023/10/12 13:18:34;;;;;;;8.23;6.50;;;27.00;45.30;;;;;;4912534;29;20437;-51
2023/10/12 13:21:01;;;;;;;9.70;6.07;;;26.90;46.00;;;;;;4913597;29;20999;-47
2023/10/12 13:23:26;;;;;;;8.53;6.27;;;26.70;46.20;;;;;;4912773;29;20452;-51
2023/10/12 13:25:52;;;;;;;8.10;6.10;;;26.70;45.90;;;;;;4911331;29;20437;-51
2023/10/12 13:28:18;;;;;;;10.33;5.77;;;26.60;46.00;;;;;;4912019;29;20209;-53
2023/10/12 13:30:44;;;;;;;10.80;5.67;;;26.70;46.00;;;;;;4911921;29;20181;-49
2023/10/12 13:33:13;;;;;;;10.70;6.00;;;26.70;46.00;;;;;;4912079;29;20272;-50
2023/10/12 13:35:44;;;;;;;11.80;6.23;;;26.70;46.00;;;;;;4912039;29;20846;-51
2023/10/12 13:38:11;;;;;;;8.33;5.53;;;26.70;45.60;;;;;;4916417;29;20453;-56
2023/10/12 13:40:41;;;;;;;7.47;5.80;;;26.70;45.50;;;;;;4915639;29;20439;-55
2023/10/12 13:43:14;;;;;;;8.20;5.70;;;26.80;45.30;;;;;;4915263;29;20507;-52
2023/10/12 13:45:49;;;;;;;11.40;7.20;;;26.70;45.00;;;;;;4915645;29;20914;-52
2023/10/12 13:48:21;;;;;;;9.67;5.90;;;26.70;44.90;;;;;;4917286;29;20493;-51
2023/10/12 13:51:01;;;;;;;10.50;6.17;;;26.80;44.90;;;;;;4911334;29;20453;-49
2023/10/12 13:53:27;;;;;;;15.47;7.07;;;26.70;45.00;;;;;;4913875;29;20429;-51
2023/10/12 13:55:56;;;;;;;7.53;5.67;;;26.50;45.20;;;;;;4915106;29;20469;-50
2023/10/12 13:58:24;;;;;;;9.03;5.80;;;26.40;45.80;;;;;;4915384;29;20449;-54
2023/10/12 14:00:51;;;;;;;5.97;5.23;;;26.40;46.00;;;;;;4907774;29;22042;-49
2023/10/12 14:03:17;;;;;;;11.83;6.57;;;26.30;46.00;;;;;;4905857;29;20453;-52
2023/10/12 14:05:43;;;;;;;11.00;6.47;;;26.30;45.90;;;;;;4918576;29;20457;-55
2023/10/12 14:08:10;;;;;;;10.27;5.93;;;26.30;45.90;;;;;;4913668;29;20552;-51
2023/10/12 14:10:44;;;;;;;10.23;5.60;;;26.30;45.90;;;;;;4911687;29;20524;-51
2023/10/12 14:13:11;;;;;;;10.20;6.50;;;26.30;46.30;;;;;;4915021;29;20441;-55
2023/10/12 14:15:38;;;;;;;9.13;6.07;;;26.40;46.10;;;;;;4910071;29;20906;-53
2023/10/12 14:18:10;;;;;;;8.43;5.57;;;26.50;45.90;;;;;;4920124;29;20468;-56
2023/10/12 14:20:37;;;;;;;8.13;6.03;;;26.60;45.70;;;;;;4916243;29;21272;-52
2023/10/12 14:23:09;;;;;;;8.83;5.70;;;26.70;45.80;;;;;;4917092;29;20452;-49
2023/10/12 14:25:47;;;;;;;13.40;6.17;;;26.60;46.00;;;;;;4917486;29;20463;-51
2023/10/12 14:28:17;;;;;;;7.67;5.97;;;26.60;46.20;;;;;;4911821;29;20469;-50
2023/10/12 14:30:46;;;;;;;16.97;6.70;;;26.60;46.30;;;;;;4914812;29;20472;-53
2023/10/12 14:33:15;;;;;;;9.97;6.30;;;26.60;46.10;;;;;;4918934;29;20953;-55
2023/10/12 14:35:41;;;;;;;11.27;5.90;;;26.50;46.20;;;;;;4914628;29;20453;-50
2023/10/12 14:38:07;;;;;;;12.37;6.27;;;26.40;46.40;;;;;;4913966;29;20468;-52
2023/10/12 14:40:35;;;;;;;8.77;6.70;;;26.50;46.70;;;;;;4916572;29;20453;-55
2023/10/12 14:43:11;;;;;;;12.20;8.37;;;26.60;46.50;;;;;;4915970;29;20449;-53
2023/10/12 14:45:43;;;;;;;9.70;7.50;;;26.60;46.40;;;;;;4914049;29;20445;-55
2023/10/12 14:48:10;;;;;;;12.03;8.40;;;26.40;46.70;;;;;;4919117;29;20492;-53
2023/10/12 14:50:37;;;;;;;10.90;6.30;;;26.30;46.60;;;;;;4913624;29;20429;-53
2023/10/12 14:53:04;;;;;;;10.90;7.97;;;26.00;47.10;;;;;;4917379;29;20481;-50
2023/10/12 14:55:30;;;;;;;15.53;10.03;;;26.00;47.20;;;;;;4914284;29;21100;-55
2023/10/12 14:57:56;;;;;;;12.97;9.47;;;25.90;47.40;;;;;;4904533;29;20465;-52
2023/10/12 15:00:24;;;;;;;8.10;6.57;;;25.90;47.40;;;;;;4914242;29;21147;-52
2023/10/12 15:02:53;;;;;;;10.93;6.30;;;25.90;47.20;;;;;;4912984;29;20196;-51
2023/10/12 15:05:20;;;;;;;10.10;8.33;;;25.80;47.30;;;;;;4910499;29;20810;-52
2023/10/12 15:07:48;;;;;;;8.03;7.23;;;25.90;47.20;;;;;;4908573;29;20462;-55
2023/10/12 15:10:17;;;;;;;14.10;7.63;;;25.90;47.40;;;;;;4913246;29;20417;-54
2023/10/12 15:12:43;;;;;;;10.63;7.43;;;26.00;47.50;;;;;;4914393;29;20580;-52
2023/10/12 15:15:16;;;;;;;9.10;7.30;;;26.00;46.70;;;;;;4914239;29;20924;-49
2023/10/12 15:17:42;;;;;;;15.30;6.20;;;26.10;46.70;;;;;;4911225;29;20464;-54
2023/10/12 15:20:12;;;;;;;12.37;7.07;;;26.20;46.30;;;;;;4912219;29;20445;-49
2023/10/12 15:22:38;;;;;;;15.77;7.07;;;26.30;46.00;;;;;;4909942;29;20196;-51
2023/10/12 15:25:05;;;;;;;15.30;7.20;;;26.30;46.20;;;;;;4910494;29;20441;-50
2023/10/12 15:27:32;;;;;;;13.90;7.07;;;26.50;45.90;;;;;;4908310;29;20444;-55
2023/10/12 15:29:59;;;;;;;13.77;7.00;;;26.60;45.50;;;;;;4898452;29;20469;-53
2023/10/12 15:32:25;;;;;;;12.73;6.50;;;26.50;45.30;;;;;;4894687;29;20525;-53
2023/10/12 15:34:51;;;;;;;12.03;6.50;;;26.50;45.50;;;;;;4900477;29;20973;-54
2023/10/12 15:37:17;;;;;;;9.20;5.73;;;26.60;45.50;;;;;;4907556;29;20512;-52
2023/10/12 15:39:46;;;;;;;7.73;5.93;;;26.60;45.00;;;;;;4901320;29;20493;-50
2023/10/12 15:42:12;;;;;;;10.90;7.27;;;26.50;45.70;;;;;;4902960;29;20588;-52
2023/10/12 15:44:41;;;;;;;9.37;5.97;;;26.70;45.50;;;;;;4910232;29;22438;-53
2023/10/12 15:47:06;;;;;;;10.13;6.20;;;26.90;45.10;;;;;;4909124;29;20937;-53
2023/10/12 15:49:32;;;;;;;8.77;6.40;;;27.00;44.70;;;;;;4915151;29;20468;-52
2023/10/12 15:52:00;;;;;;;7.83;5.93;;;26.90;44.40;;;;;;4908756;29;20616;-53
2023/10/12 15:54:26;;;;;;;15.10;5.40;;;26.70;43.80;;;;;;4912808;29;22152;-50
2023/10/12 15:56:55;;;;;;;9.13;5.13;;;26.80;43.80;;;;;;4914778;29;20453;-52
2023/10/12 15:59:27;;;;;;;7.17;5.00;;;26.90;43.50;;;;;;4912884;29;20465;-51
2023/10/12 16:01:53;;;;;;;12.20;5.00;;;27.00;43.30;;;;;;4917517;29;20948;-49
2023/10/12 16:04:19;;;;;;;9.67;5.30;;;26.90;42.10;;;;;;4912485;29;20461;-49
2023/10/12 16:06:46;;;;;;;5.50;4.93;;;27.00;42.30;;;;;;4908417;29;20190;-53
2023/10/12 16:09:18;;;;;;;10.07;4.97;;;27.10;42.40;;;;;;4917330;29;20563;-52